Time;durP1;ratioP1;P1;durP2;ratioP2;P2;SDS_P1;SDS_P2;PMS_P1;PMS_P2;Temp;Humidity;BMP_temperature;BMP_pressure;BME280_temperature;BME280_humidity;BME280_pressure;Samples;Min_cycle;Max_cycle;Signal;HPM_P1;HPM_P2
2024/04/06 00:01:51;;;;;;;;;;;16.90;79.30;;;;;;5052193;28;19912;-71
2024/04/06 00:04:17;;;;;;;;;;;16.90;76.20;;;;;;5052206;28;19916;-70
2024/04/06 00:06:42;;;;;;;;;;;16.80;80.90;;;;;;5052092;28;20392;-69
2024/04/06 00:09:09;;;;;;;;;;;17.20;82.00;;;;;;5051869;28;19905;-69
2024/04/06 00:11:34;;;;;;;;;;;16.80;82.10;;;;;;5052098;28;20438;-70
2024/04/06 00:14:00;;;;;;;;;;;16.80;83.60;;;;;;5052038;28;19958;-71
2024/04/06 00:16:25;;;;;;;;;;;16.80;81.10;;;;;;5051935;28;19940;-71
2024/04/06 00:18:51;;;;;;;;;;;16.80;81.30;;;;;;5051621;28;19908;-73
2024/04/06 00:21:17;;;;;;;;;;;16.70;84.00;;;;;;5052055;28;19915;-71
2024/04/06 00:23:42;;;;;;;;;;;16.70;88.00;;;;;;5052004;28;19987;-71
2024/04/06 00:26:07;;;;;;;;;;;16.60;90.30;;;;;;5051972;28;19904;-72
2024/04/06 00:28:34;;;;;;;;;;;16.60;91.10;;;;;;5051638;28;20280;-71
2024/04/06 00:31:00;;;;;;;;;;;16.50;93.10;;;;;;5051905;28;19905;-72
2024/04/06 00:33:25;;;;;;;;;;;16.50;92.90;;;;;;5051907;28;20273;-70
2024/04/06 00:35:51;;;;;;;;;;;16.50;94.40;;;;;;5051854;28;19905;-72
2024/04/06 00:38:16;;;;;;;;;;;16.40;94.80;;;;;;5051568;28;19923;-71
2024/04/06 00:40:41;;;;;;;;;;;16.30;95.90;;;;;;5051725;28;19912;-71
2024/04/06 00:43:07;;;;;;;;;;;16.20;98.90;;;;;;5051872;28;19995;-72
2024/04/06 00:45:33;;;;;;;;;;;16.20;99.90;;;;;;5051848;28;20606;-71
2024/04/06 00:47:59;;;;;;;;;;;16.20;99.90;;;;;;5051590;28;19927;-71
2024/04/06 00:50:25;;;;;;;;;;;16.20;99.90;;;;;;5051619;28;19947;-71
2024/04/06 00:52:50;;;;;;;;;;;16.10;99.90;;;;;;5051736;28;19909;-71
2024/04/06 00:55:16;;;;;;;;;;;16.10;99.90;;;;;;5051693;28;19958;-72
2024/04/06 00:57:42;;;;;;;;;;;16.10;99.90;;;;;;5051601;28;19905;-71
2024/04/06 01:00:07;;;;;;;;;;;16.00;99.90;;;;;;5053855;28;19904;-71
2024/04/06 01:02:33;;;;;;;;;;;16.00;99.90;;;;;;5055384;28;19904;-71
2024/04/06 01:04:59;;;;;;;;;;;16.00;99.90;;;;;;5055320;28;20010;-71
2024/04/06 01:07:25;;;;;;;;;;;16.00;99.90;;;;;;5055302;28;19904;-70
2024/04/06 01:09:50;;;;;;;;;;;15.90;99.90;;;;;;5054923;28;20418;-71
2024/04/06 01:12:16;;;;;;;;;;;15.80;99.90;;;;;;5055365;28;19905;-71
2024/04/06 01:14:41;;;;;;;;;;;15.80;99.90;;;;;;5053914;28;19927;-70
2024/04/06 01:17:08;;;;;;;;;;;15.80;99.90;;;;;;5055070;28;19917;-70
2024/04/06 01:19:33;;;;;;;;;;;15.70;99.90;;;;;;5054704;28;19908;-70
2024/04/06 01:21:59;;;;;;;;;;;15.60;99.90;;;;;;5055024;28;20006;-71
2024/04/06 01:24:25;;;;;;;;;;;15.50;99.90;;;;;;5054959;28;19904;-70
2024/04/06 01:26:51;;;;;;;;;;;15.40;99.90;;;;;;5054904;28;19908;-70
2024/04/06 01:29:16;;;;;;;;;;;15.40;99.90;;;;;;5054640;28;19908;-70
2024/04/06 01:31:42;;;;;;;;;;;15.30;99.90;;;;;;5054878;28;19912;-71
2024/04/06 01:34:08;;;;;;;;;;;15.20;99.90;;;;;;5054764;28;19915;-71
2024/04/06 01:36:33;;;;;;;;;;;15.10;99.90;;;;;;5054760;28;19974;-71
2024/04/06 01:38:59;;;;;;;;;;;15.10;99.90;;;;;;5054301;28;19908;-70
2024/04/06 01:41:24;;;;;;;;;;;15.10;99.90;;;;;;5054996;28;20020;-71
2024/04/06 01:43:50;;;;;;;;;;;15.10;99.90;;;;;;5054597;28;19912;-70
2024/04/06 01:46:15;;;;;;;;;;;15.00;99.90;;;;;;5054608;28;19905;-71
2024/04/06 01:48:41;;;;;;;;;;;15.00;99.90;;;;;;5054258;28;20372;-71
2024/04/06 01:51:07;;;;;;;;;;;15.00;99.90;;;;;;5054443;28;19995;-71
2024/04/06 01:53:33;;;;;;;;;;;15.00;99.90;;;;;;5054453;28;19949;-71
2024/04/06 01:55:58;;;;;;;;;;;14.90;99.90;;;;;;5054324;28;20276;-70
2024/04/06 01:58:24;;;;;;;;;;;14.90;99.90;;;;;;5053999;28;19908;-70
2024/04/06 02:00:49;;;;;;;;;;;14.80;99.90;;;;;;5054263;28;19959;-71
2024/04/06 02:03:15;;;;;;;;;;;14.80;99.90;;;;;;5054273;28;19905;-70
2024/04/06 02:05:40;;;;;;;;;;;14.80;99.90;;;;;;5054172;28;19912;-70
2024/04/06 02:08:06;;;;;;;;;;;14.80;99.90;;;;;;5053925;28;19905;-71
2024/04/06 02:10:31;;;;;;;;;;;14.80;99.90;;;;;;5053855;28;19912;-70
2024/04/06 02:12:56;;;;;;;;;;;14.70;99.90;;;;;;5054039;28;19952;-71
2024/04/06 02:15:22;;;;;;;;;;;14.70;99.90;;;;;;5054063;28;19912;-71
2024/04/06 02:17:48;;;;;;;;;;;14.60;99.90;;;;;;5053882;28;19913;-70
2024/04/06 02:20:13;;;;;;;;;;;14.60;99.90;;;;;;5053596;28;19904;-70
2024/04/06 02:22:38;;;;;;;;;;;14.60;99.90;;;;;;5053925;28;19905;-69
2024/04/06 02:25:04;;;;;;;;;;;14.50;99.90;;;;;;5053830;28;19996;-69
2024/04/06 02:27:30;;;;;;;;;;;14.50;99.90;;;;;;5053803;28;19912;-69
2024/04/06 02:29:55;;;;;;;;;;;14.50;99.90;;;;;;5053510;28;19944;-71
2024/04/06 02:32:21;;;;;;;;;;;14.40;99.90;;;;;;5053772;28;19912;-71
2024/04/06 02:34:46;;;;;;;;;;;14.30;99.90;;;;;;5053708;28;19909;-70
2024/04/06 02:37:12;;;;;;;;;;;14.20;99.90;;;;;;5053586;28;19912;-70
2024/04/06 02:39:37;;;;;;;;;;;14.20;99.90;;;;;;5053147;28;19912;-70
2024/04/06 02:42:03;;;;;;;;;;;14.10;99.90;;;;;;5053523;28;19911;-70
2024/04/06 02:44:28;;;;;;;;;;;14.10;99.90;;;;;;5053509;28;20296;-71
2024/04/06 02:46:54;;;;;;;;;;;14.10;99.90;;;;;;5053363;28;19915;-70
2024/04/06 02:49:20;;;;;;;;;;;14.10;99.90;;;;;;5053063;28;20352;-71
2024/04/06 02:51:45;;;;;;;;;;;14.00;99.90;;;;;;5053371;28;19915;-71
2024/04/06 02:54:11;;;;;;;;;;;14.00;99.90;;;;;;5053200;28;20457;-70
2024/04/06 02:56:36;;;;;;;;;;;14.00;99.90;;;;;;5053269;28;19905;-70
2024/04/06 02:59:03;;;;;;;;;;;14.00;99.90;;;;;;5052805;28;20030;-70
2024/04/06 03:01:29;;;;;;;;;;;14.00;99.90;;;;;;5053146;28;20372;-71
2024/04/06 03:03:54;;;;;;;;;;;14.00;99.90;;;;;;5052987;28;20014;-71
2024/04/06 03:06:20;;;;;;;;;;;13.90;99.90;;;;;;5053089;28;20427;-70
2024/04/06 03:08:45;;;;;;;;;;;13.80;99.90;;;;;;5052707;28;19908;-70
2024/04/06 03:11:10;;;;;;;;;;;13.80;99.90;;;;;;5052955;28;19947;-70
2024/04/06 03:13:36;;;;;;;;;;;13.90;99.90;;;;;;5052897;28;19909;-70
2024/04/06 03:16:01;;;;;;;;;;;13.80;99.90;;;;;;5052759;28;19911;-70
2024/04/06 03:18:27;;;;;;;;;;;13.90;99.90;;;;;;5052474;28;19909;-71
2024/04/06 03:20:52;;;;;;;;;;;13.90;99.90;;;;;;5052773;28;19905;-70
2024/04/06 03:23:18;;;;;;;;;;;14.00;99.90;;;;;;5052142;28;19958;-70
2024/04/06 03:25:43;;;;;;;;;;;14.00;99.90;;;;;;5052697;28;19905;-70
2024/04/06 03:28:09;;;;;;;;;;;14.20;99.90;;;;;;5052460;28;20418;-70
2024/04/06 03:30:35;;;;;;;;;;;14.30;99.90;;;;;;5052603;28;19912;-71
2024/04/06 03:33:00;;;;;;;;;;;14.30;99.90;;;;;;5052499;28;20316;-70
2024/04/06 03:35:26;;;;;;;;;;;14.30;99.90;;;;;;5052576;28;20051;-70
2024/04/06 03:37:51;;;;;;;;;;;14.40;99.90;;;;;;5052257;28;20371;-70
2024/04/06 03:40:17;;;;;;;;;;;14.40;99.90;;;;;;5052857;28;19913;-70
2024/04/06 03:42:43;;;;;;;;;;;14.50;99.90;;;;;;5052430;28;19955;-70
2024/04/06 03:45:10;;;;;;;;;;;14.50;99.90;;;;;;5052412;28;19930;-70
2024/04/06 03:47:37;;;;;;;;;;;14.50;99.90;;;;;;5052372;28;19905;-70
2024/04/06 03:50:02;;;;;;;;;;;14.60;99.90;;;;;;5052038;28;19905;-70
2024/04/06 03:52:28;;;;;;;;;;;14.60;99.90;;;;;;5052242;28;19911;-70
2024/04/06 03:54:53;;;;;;;;;;;14.60;99.90;;;;;;5052308;28;20008;-70
2024/04/06 03:57:19;;;;;;;;;;;14.60;99.90;;;;;;5052229;28;19905;-70
2024/04/06 03:59:44;;;;;;;;;;;14.50;99.90;;;;;;5051938;28;19915;-70
2024/04/06 04:02:10;;;;;;;;;;;14.50;99.90;;;;;;5052178;28;19979;-70
2024/04/06 04:04:35;;;;;;;;;;;14.50;99.90;;;;;;5052155;28;19943;-70
2024/04/06 04:07:01;;;;;;;;;;;14.50;99.90;;;;;;5052143;28;19904;-70
2024/04/06 04:09:26;;;;;;;;;;;14.50;99.90;;;;;;5051871;28;19920;-70
2024/04/06 04:11:52;;;;;;;;;;;14.50;99.90;;;;;;5052151;28;19912;-70
2024/04/06 04:14:17;;;;;;;;;;;14.50;99.90;;;;;;5052021;28;19909;-70
2024/04/06 04:16:43;;;;;;;;;;;14.40;99.90;;;;;;5051905;28;20057;-70
2024/04/06 04:19:08;;;;;;;;;;;14.40;99.90;;;;;;5051667;28;20443;-70
2024/04/06 04:21:34;;;;;;;;;;;14.40;99.90;;;;;;5052040;28;19905;-69
2024/04/06 04:23:59;;;;;;;;;;;14.40;99.90;;;;;;5051939;28;19905;-71
2024/04/06 04:26:25;;;;;;;;;;;14.40;99.90;;;;;;5051986;28;19953;-68
2024/04/06 04:28:50;;;;;;;;;;;14.40;99.90;;;;;;5051703;28;19904;-69
2024/04/06 04:31:17;;;;;;;;;;;14.30;99.90;;;;;;5051902;28;19905;-69
2024/04/06 04:33:42;;;;;;;;;;;14.30;99.90;;;;;;5052148;28;19909;-69
2024/04/06 04:36:08;;;;;;;;;;;14.20;99.90;;;;;;5055812;28;19904;-69
2024/04/06 04:38:34;;;;;;;;;;;14.30;99.90;;;;;;5055489;28;19909;-68
2024/04/06 04:40:59;;;;;;;;;;;14.10;99.90;;;;;;5055837;28;20453;-70
2024/04/06 04:43:25;;;;;;;;;;;14.10;99.90;;;;;;5055772;28;20261;-68
2024/04/06 04:45:50;;;;;;;;;;;14.00;99.90;;;;;;5055716;28;19905;-67
2024/04/06 04:48:16;;;;;;;;;;;13.90;99.90;;;;;;5055461;28;19908;-67
2024/04/06 04:50:41;;;;;;;;;;;13.90;99.90;;;;;;5055611;28;19950;-67
2024/04/06 04:53:07;;;;;;;;;;;13.90;99.90;;;;;;5055591;28;20004;-67
2024/04/06 04:55:32;;;;;;;;;;;13.80;99.90;;;;;;5055582;28;19904;-70
2024/04/06 04:57:58;;;;;;;;;;;13.80;99.90;;;;;;5055198;28;19904;-69
2024/04/06 05:00:24;;;;;;;;;;;13.80;99.90;;;;;;5055420;28;19912;-71
2024/04/06 05:02:50;;;;;;;;;;;14.50;99.90;;;;;;5055490;28;20312;-70
2024/04/06 05:05:15;;;;;;;;;;;13.80;99.90;;;;;;5055353;28;19905;-71
2024/04/06 05:07:41;;;;;;;;;;;13.80;99.90;;;;;;5055380;28;19904;-71
2024/04/06 05:10:09;;;;;;;;;;;13.80;99.90;;;;;;5054978;28;19915;-71
2024/04/06 05:12:35;;;;;;;;;;;13.70;99.90;;;;;;5055253;28;19944;-70
2024/04/06 05:15:01;;;;;;;;;;;13.70;99.90;;;;;;5055505;28;19950;-71
2024/04/06 05:17:26;;;;;;;;;;;13.70;99.90;;;;;;5054992;28;19917;-70
2024/04/06 05:19:52;;;;;;;;;;;13.70;99.90;;;;;;5054763;28;20332;-70
2024/04/06 05:22:17;;;;;;;;;;;13.60;99.90;;;;;;5055004;28;19912;-70
2024/04/06 05:24:43;;;;;;;;;;;13.70;99.90;;;;;;5055028;28;19912;-69
2024/04/06 05:27:09;;;;;;;;;;;13.60;99.90;;;;;;5054921;28;19905;-69
2024/04/06 05:29:35;;;;;;;;;;;13.70;99.90;;;;;;5054546;28;19916;-69
2024/04/06 05:32:00;;;;;;;;;;;13.70;99.90;;;;;;5054945;28;20373;-69
2024/04/06 05:34:26;;;;;;;;;;;13.70;99.90;;;;;;5054809;28;19924;-69
2024/04/06 05:36:54;;;;;;;;;;;13.70;99.90;;;;;;5054754;28;19948;-69
2024/04/06 05:39:20;;;;;;;;;;;13.70;99.90;;;;;;5054368;28;19948;-69
2024/04/06 05:41:47;;;;;;;;;;;13.80;99.90;;;;;;5054843;28;19936;-71
2024/04/06 05:44:12;;;;;;;;;;;13.80;99.90;;;;;;5054454;28;19908;-70
2024/04/06 05:46:38;;;;;;;;;;;14.00;99.90;;;;;;5054510;28;19912;-70
2024/04/06 05:49:05;;;;;;;;;;;14.00;99.90;;;;;;5054208;28;19958;-70
2024/04/06 05:51:31;;;;;;;;;;;14.10;99.90;;;;;;5054478;28;20312;-71
2024/04/06 05:53:57;;;;;;;;;;;14.00;99.90;;;;;;5054473;28;19912;-70
2024/04/06 05:56:22;;;;;;;;;;;14.00;99.90;;;;;;5054444;28;19963;-69
2024/04/06 05:58:48;;;;;;;;;;;14.10;99.90;;;;;;5053961;28;19908;-70
2024/04/06 06:01:13;;;;;;;;;;;14.10;99.90;;;;;;5054376;28;19905;-69
2024/04/06 06:03:39;;;;;;;;;;;14.20;99.90;;;;;;5054287;28;19904;-69
2024/04/06 06:06:04;;;;;;;;;;;14.30;99.90;;;;;;5054237;28;20530;-70
2024/04/06 06:08:30;;;;;;;;;;;14.30;99.90;;;;;;5053856;28;19911;-70
2024/04/06 06:10:55;;;;;;;;;;;14.30;99.90;;;;;;5054159;28;19912;-70
2024/04/06 06:13:21;;;;;;;;;;;14.40;99.90;;;;;;5054040;28;19904;-69
2024/04/06 06:15:47;;;;;;;;;;;14.40;99.90;;;;;;5053968;28;19905;-70
2024/04/06 06:18:12;;;;;;;;;;;14.50;99.90;;;;;;5053728;28;20412;-69
2024/04/06 06:20:38;;;;;;;;;;;14.60;99.90;;;;;;5053864;28;19958;-69
2024/04/06 06:23:04;;;;;;;;;;;14.70;99.90;;;;;;5053921;28;19974;-69
2024/04/06 06:25:31;;;;;;;;;;;14.70;99.90;;;;;;5053846;28;19950;-69
2024/04/06 06:27:57;;;;;;;;;;;14.70;99.90;;;;;;5053593;28;20368;-70
2024/04/06 06:30:22;;;;;;;;;;;14.70;99.90;;;;;;5053740;28;19955;-69
2024/04/06 06:32:47;;;;;;;;;;;14.70;99.90;;;;;;5053692;28;19905;-70
2024/04/06 06:35:13;;;;;;;;;;;14.80;99.60;;;;;;5053643;28;19909;-69
2024/04/06 06:37:38;;;;;;;;;;;15.50;99.40;;;;;;5053654;28;20010;-70
2024/04/06 06:40:04;;;;;;;;;;;14.90;99.90;;;;;;5053197;28;19962;-69
2024/04/06 06:42:30;;;;;;;;;;;14.90;99.90;;;;;;5053425;28;20011;-70
2024/04/06 06:44:55;;;;;;;;;;;14.90;99.90;;;;;;5053559;28;19905;-69
2024/04/06 06:47:23;;;;;;;;;;;14.90;99.90;;;;;;5053466;28;19992;-70
2024/04/06 06:49:49;;;;;;;;;;;15.10;99.90;;;;;;5053067;28;20564;-69
2024/04/06 06:52:14;;;;;;;;;;;15.20;99.90;;;;;;5053309;28;19943;-70
2024/04/06 06:54:40;;;;;;;;;;;15.20;99.50;;;;;;5053258;28;20281;-70
2024/04/06 06:57:05;;;;;;;;;;;15.30;99.00;;;;;;5052293;28;19926;-69
2024/04/06 06:59:31;;;;;;;;;;;15.40;95.00;;;;;;5052895;28;19909;-69
2024/04/06 07:01:56;;;;;;;;;;;15.50;95.90;;;;;;5053201;28;19909;-70
2024/04/06 07:04:22;;;;;;;;;;;15.60;93.70;;;;;;5053065;28;20369;-70
2024/04/06 07:06:47;;;;;;;;;;;15.80;92.00;;;;;;5053109;28;19951;-70
2024/04/06 07:09:13;;;;;;;;;;;15.90;80.90;;;;;;5052862;28;19905;-70
2024/04/06 07:11:38;;;;;;;;;;;16.00;75.40;;;;;;5052954;28;20383;-69
2024/04/06 07:14:04;;;;;;;;;;;16.10;75.10;;;;;;5052960;28;19904;-71
2024/04/06 07:16:29;;;;;;;;;;;16.30;74.10;;;;;;5052755;28;20376;-69
2024/04/06 07:18:55;;;;;;;;;;;16.40;70.40;;;;;;5052558;28;19908;-70
2024/04/06 07:21:21;;;;;;;;;;;16.50;57.20;;;;;;5052833;28;20286;-70
2024/04/06 07:23:46;;;;;;;;;;;16.60;56.20;;;;;;5052749;28;19913;-70
2024/04/06 07:26:12;;;;;;;;;;;16.80;47.20;;;;;;5052630;28;20018;-70
2024/04/06 07:28:37;;;;;;;;;;;16.80;54.70;;;;;;5052260;28;19912;-70
2024/04/06 07:31:03;;;;;;;;;;;16.90;28.80;;;;;;5052620;28;19904;-70
2024/04/06 07:33:29;;;;;;;;;;;17.10;29.40;;;;;;5052474;28;19908;-70
2024/04/06 07:35:54;;;;;;;;;;;17.30;26.50;;;;;;5052817;28;19909;-69
2024/04/06 07:38:20;;;;;;;;;;;17.30;23.20;;;;;;5052148;28;19908;-71
2024/04/06 07:40:45;;;;;;;;;;;17.40;26.20;;;;;;5052596;28;19944;-70
2024/04/06 07:43:11;;;;;;;;;;;17.50;21.80;;;;;;5052378;28;20382;-70
2024/04/06 07:45:36;;;;;;;;;;;17.60;15.20;;;;;;5052376;28;19904;-70
2024/04/06 07:48:02;;;;;;;;;;;17.80;12.40;;;;;;5052146;28;19943;-70
2024/04/06 07:50:27;;;;;;;;;;;17.80;8.30;;;;;;5052264;28;19912;-70
2024/04/06 07:52:53;;;;;;;;;;;18.00;8.60;;;;;;5052289;28;19930;-69
2024/04/06 07:55:18;;;;;;;;;;;18.10;6.30;;;;;;5052177;28;19904;-70
2024/04/06 07:57:44;;;;;;;;;;;18.10;1.00;;;;;;5052110;28;19993;-70
2024/04/06 08:00:13;;;;;;;;;;;18.30;1.00;;;;;;5051824;28;20282;-69
2024/04/06 08:02:41;;;;;;;;;;;18.40;1.00;;;;;;5052058;28;19915;-70
2024/04/06 08:05:08;;;;;;;;;;;18.40;1.00;;;;;;5052058;28;19904;-69
2024/04/06 08:07:34;;;;;;;;;;;18.50;1.00;;;;;;5051823;28;19912;-70
2024/04/06 08:10:00;;;;;;;;;;;18.60;1.00;;;;;;5051778;28;19905;-69
2024/04/06 08:12:26;;;;;;;;;;;18.70;1.00;;;;;;5051986;28;19905;-69
2024/04/06 08:14:52;;;;;;;;;;;18.80;1.00;;;;;;5052202;28;19905;-71
2024/04/06 08:17:17;;;;;;;;;;;18.80;1.00;;;;;;5051988;28;19917;-69
2024/04/06 08:19:43;;;;;;;;;;;18.80;1.00;;;;;;5051607;28;19974;-70
2024/04/06 08:22:08;;;;;;;;;;;18.90;1.00;;;;;;5052006;28;20016;-70
2024/04/06 08:24:34;;;;;;;;;;;19.00;1.00;;;;;;5051892;28;20424;-70
2024/04/06 08:27:00;;;;;;;;;;;19.00;1.00;;;;;;5051927;28;19905;-69
2024/04/06 08:29:25;;;;;;;;;;;19.00;1.00;;;;;;5051587;28;19916;-70
2024/04/06 08:31:51;;;;;;;;;;;19.00;1.00;;;;;;5051877;28;20066;-68
2024/04/06 08:34:16;;;;;;;;;;;18.90;1.00;;;;;;5050827;28;19912;-68
2024/04/06 08:36:42;;;;;;;;;;;19.00;1.00;;;;;;5051784;28;20384;-68
2024/04/06 08:39:08;;;;;;;;;;;19.10;1.00;;;;;;5051433;28;19951;-68
2024/04/06 08:41:33;;;;;;;;;;;19.20;1.00;;;;;;5051677;28;20299;-68
2024/04/06 08:44:00;;;;;;;;;;;19.40;1.00;;;;;;5051707;28;20280;-69
2024/04/06 08:46:26;;;;;;;;;;;19.40;1.00;;;;;;5051711;28;19909;-69
2024/04/06 08:48:52;;;;;;;;;;;19.50;1.00;;;;;;5051455;28;20030;-68
2024/04/06 08:51:19;;;;;;;;;;;19.50;1.00;;;;;;5051671;28;19909;-68
2024/04/06 08:53:44;;;;;;;;;;;19.50;1.00;;;;;;5051537;28;19904;-68
2024/04/06 08:56:14;;;;;;;;;;;19.60;1.00;;;;;;5051554;28;20039;-70
2024/04/06 08:58:40;;;;;;;;;;;19.60;1.00;;;;;;5051251;28;19916;-68
2024/04/06 09:01:06;;;;;;;;;;;19.70;1.00;;;;;;5051673;28;20276;-68
2024/04/06 09:03:31;;;;;;;;;;;20.00;1.00;;;;;;5051592;28;19987;-70
2024/04/06 09:05:58;;;;;;;;;;;20.10;1.00;;;;;;5051581;28;19939;-70
2024/04/06 09:08:24;;;;;;;;;;;;;;;;;;5051232;28;19905;-70
2024/04/06 09:10:57;;;;;;;;;;;20.10;1.00;;;;;;5051507;28;20379;-70
2024/04/06 09:13:23;;;;;;;;;;;20.50;1.00;;;;;;5051513;28;19905;-70
2024/04/06 09:15:48;;;;;;;;;;;20.70;1.00;;;;;;5051323;28;19931;-70
2024/04/06 09:18:15;;;;;;;;;;;20.90;1.00;;;;;;5051258;28;19920;-70
2024/04/06 09:20:41;;;;;;;;;;;21.00;1.00;;;;;;5053041;28;19940;-70
2024/04/06 09:23:07;;;;;;;;;;;21.10;1.00;;;;;;5054983;28;19958;-70
2024/04/06 09:25:32;;;;;;;;;;;21.20;1.00;;;;;;5054335;28;19958;-70
2024/04/06 09:27:58;;;;;;;;;;;21.40;1.00;;;;;;5054722;28;19905;-70
2024/04/06 09:30:30;;;;;;;;;;;21.60;1.00;;;;;;5054853;28;19909;-70
2024/04/06 09:32:56;;;;;;;;;;;21.70;1.00;;;;;;5054822;28;20035;-70
2024/04/06 09:35:22;;;;;;;;;;;21.80;1.00;;;;;;5054800;28;19941;-71
2024/04/06 09:37:50;;;;;;;;;;;21.80;1.00;;;;;;5054828;28;19912;-70
2024/04/06 09:40:15;;;;;;;;;;;21.80;1.00;;;;;;5054397;28;20386;-70
2024/04/06 09:42:42;;;;;;;;;;;21.80;1.00;;;;;;5054600;28;19905;-71
2024/04/06 09:45:08;;;;;;;;;;;21.80;1.00;;;;;;5054481;28;19927;-70
2024/04/06 09:47:35;;;;;;;;;;;21.90;1.00;;;;;;5054551;28;19905;-71
2024/04/06 09:50:00;;;;;;;;;;;22.00;1.00;;;;;;5054395;28;20075;-70
2024/04/06 09:52:26;;;;;;;;;;;22.10;1.00;;;;;;5054478;28;20026;-70
2024/04/06 09:54:52;;;;;;;;;;;22.10;1.00;;;;;;5054414;28;20295;-70
2024/04/06 09:57:18;;;;;;;;;;;22.00;1.00;;;;;;5054403;28;19905;-71
2024/04/06 09:59:45;;;;;;;;;;;22.00;1.00;;;;;;5053984;28;20382;-70
2024/04/06 10:02:10;;;;;;;;;;;22.20;1.00;;;;;;5054375;28;19905;-70
2024/04/06 10:04:36;;;;;;;;;;;22.20;1.00;;;;;;5054163;28;19909;-69
2024/04/06 10:07:03;;;;;;;;;;;22.10;1.00;;;;;;5053993;28;19905;-69
2024/04/06 10:09:30;;;;;;;;;;;22.10;1.00;;;;;;5052394;28;20387;-70
2024/04/06 10:12:02;;;;;;;;;;;22.10;1.00;;;;;;5054132;28;19904;-70
2024/04/06 10:14:29;;;;;;;;;;;22.10;1.00;;;;;;5053972;28;19911;-70
2024/04/06 10:17:14;;;;;;;;;;;22.20;1.00;;;;;;5053879;28;20392;-70
2024/04/06 10:19:40;;;;;;;;;;;22.50;1.00;;;;;;5053253;28;20300;-69
2024/04/06 10:22:06;;;;;;;;;;;22.30;1.00;;;;;;5053893;28;19909;-70
2024/04/06 10:24:34;;;;;;;;;;;22.20;1.00;;;;;;5053877;28;19904;-69
2024/04/06 10:26:59;;;;;;;;;;;22.30;1.00;;;;;;5053862;28;19956;-70
2024/04/06 10:29:26;;;;;;;;;;;22.50;1.00;;;;;;5053537;28;19978;-70
2024/04/06 10:31:52;;;;;;;;;;;22.70;1.00;;;;;;5053632;28;19992;-70
2024/04/06 10:34:18;;;;;;;;;;;23.00;1.00;;;;;;5053796;28;20023;-70
2024/04/06 10:36:43;;;;;;;;;;;23.30;1.00;;;;;;5053624;28;19949;-70
2024/04/06 10:39:09;;;;;;;;;;;23.50;1.00;;;;;;5053352;28;19909;-71
2024/04/06 10:41:36;;;;;;;;;;;23.60;1.00;;;;;;5053482;28;19905;-70
2024/04/06 10:44:02;;;;;;;;;;;23.80;1.00;;;;;;5053507;28;20280;-69
2024/04/06 10:46:27;;;;;;;;;;;23.70;1.00;;;;;;5053194;28;19904;-70
2024/04/06 10:48:54;;;;;;;;;;;23.80;1.00;;;;;;5053122;28;19905;-71
2024/04/06 10:51:21;;;;;;;;;;;24.10;1.00;;;;;;5053355;28;19908;-68
2024/04/06 10:53:46;;;;;;;;;;;24.50;1.00;;;;;;5053227;28;19905;-68
2024/04/06 10:56:12;;;;;;;;;;;24.60;1.00;;;;;;5053277;28;20261;-70
2024/04/06 10:58:38;;;;;;;;;;;23.90;1.00;;;;;;5052889;28;19909;-68
2024/04/06 11:01:15;;;;;;;;;;;24.30;1.00;;;;;;5053169;28;20398;-68
2024/04/06 11:03:41;;;;;;;;;;;24.20;1.00;;;;;;5053031;28;19905;-68
2024/04/06 11:06:07;;;;;;;;;;;24.10;1.00;;;;;;5053036;28;20470;-68
2024/04/06 11:08:33;;;;;;;;;;;24.20;1.00;;;;;;5052731;28;20278;-70
2024/04/06 11:10:58;;;;;;;;;;;24.10;1.00;;;;;;5052934;28;20010;-67
2024/04/06 11:13:24;;;;;;;;;;;24.00;1.00;;;;;;5052925;28;19909;-68
2024/04/06 11:15:50;;;;;;;;;;;24.00;1.00;;;;;;5052748;28;19905;-68
2024/04/06 11:18:15;;;;;;;;;;;24.10;1.00;;;;;;5052598;28;20129;-68
2024/04/06 11:20:41;;;;;;;;;;;24.20;1.00;;;;;;5052676;28;19909;-69
2024/04/06 11:23:16;;;;;;;;;;;24.20;1.00;;;;;;5052747;28;19911;-69
2024/04/06 11:25:42;;;;;;;;;;;24.40;1.00;;;;;;5052740;28;19951;-68
2024/04/06 11:28:07;;;;;;;;;;;24.60;1.00;;;;;;5052498;28;19955;-68
2024/04/06 11:30:33;;;;;;;;;;;24.80;1.00;;;;;;5052627;28;20373;-69
2024/04/06 11:32:58;;;;;;;;;;;24.90;1.00;;;;;;5052563;28;19905;-68
2024/04/06 11:35:24;;;;;;;;;;;24.90;1.00;;;;;;5052578;28;20372;-68
2024/04/06 11:37:49;;;;;;;;;;;24.80;1.00;;;;;;5052530;28;20004;-68
2024/04/06 11:40:15;;;;;;;;;;;24.90;1.00;;;;;;5052257;28;20349;-68
2024/04/06 11:42:40;;;;;;;;;;;25.10;1.00;;;;;;5051938;28;19911;-68
2024/04/06 11:45:07;;;;;;;;;;;25.00;1.00;;;;;;5052391;28;19908;-68
2024/04/06 11:47:33;;;;;;;;;;;25.20;1.00;;;;;;5052423;28;19995;-69
2024/04/06 11:50:00;;;;;;;;;;;25.50;1.00;;;;;;5052388;28;19947;-68
2024/04/06 11:52:25;;;;;;;;;;;25.70;1.00;;;;;;5052118;28;19905;-69
2024/04/06 11:54:51;;;;;;;;;;;25.80;1.00;;;;;;5052274;28;19909;-68
2024/04/06 11:57:17;;;;;;;;;;;25.90;1.00;;;;;;5052296;28;20388;-69
2024/04/06 11:59:42;;;;;;;;;;;26.20;1.00;;;;;;5051885;28;19916;-70
2024/04/06 12:02:08;;;;;;;;;;;26.20;1.00;;;;;;5052071;28;19912;-70
2024/04/06 12:04:33;;;;;;;;;;;26.20;1.00;;;;;;5052459;28;20001;-69
2024/04/06 12:07:00;;;;;;;;;;;26.20;1.00;;;;;;5052276;28;19936;-71
2024/04/06 12:09:25;;;;;;;;;;;26.30;1.00;;;;;;5051877;28;19909;-69
2024/04/06 12:11:51;;;;;;;;;;;26.30;1.00;;;;;;5052066;28;19924;-70
2024/04/06 12:14:17;;;;;;;;;;;26.60;1.00;;;;;;5052008;28;19904;-70
2024/04/06 12:16:42;;;;;;;;;;;27.40;1.00;;;;;;5050522;28;19919;-70
2024/04/06 12:19:07;;;;;;;;;;;28.00;1.00;;;;;;5051631;28;19909;-69
2024/04/06 12:21:33;;;;;;;;;;;28.00;1.00;;;;;;5052177;28;20300;-70
2024/04/06 12:23:58;;;;;;;;;;;28.00;1.00;;;;;;5051915;28;19908;-70
2024/04/06 12:26:24;;;;;;;;;;;28.50;1.00;;;;;;5051980;28;19905;-70
2024/04/06 12:28:49;;;;;;;;;;;28.90;1.00;;;;;;5051671;28;20425;-70
2024/04/06 12:31:19;;;;;;;;;;;29.10;1.00;;;;;;5051921;28;19916;-70
2024/04/06 12:33:44;;;;;;;;;;;29.10;1.00;;;;;;5052131;28;19908;-70
2024/04/06 12:36:11;;;;;;;;;;;29.00;1.00;;;;;;5051856;28;19909;-69
2024/04/06 12:38:37;;;;;;;;;;;28.90;1.00;;;;;;5051480;28;19909;-70
2024/04/06 12:41:02;;;;;;;;;;;28.70;1.00;;;;;;5051810;28;19912;-70
2024/04/06 12:43:28;;;;;;;;;;;29.10;1.00;;;;;;5051819;28;19905;-70
2024/04/06 12:45:53;;;;;;;;;;;29.10;1.00;;;;;;5051752;28;19966;-70
2024/04/06 12:48:20;;;;;;;;;;;29.20;1.00;;;;;;5051451;28;19905;-70
2024/04/06 12:50:46;;;;;;;;;;;29.60;1.00;;;;;;5051640;28;19951;-70
2024/04/06 12:53:11;;;;;;;;;;;29.90;1.00;;;;;;5051691;28;19952;-70
2024/04/06 12:55:37;;;;;;;;;;;29.40;1.00;;;;;;5053447;28;19912;-70
2024/04/06 12:58:02;;;;;;;;;;;29.50;1.00;;;;;;5055244;28;19905;-69
2024/04/06 13:00:28;;;;;;;;;;;29.50;1.00;;;;;;5055418;28;19904;-70
2024/04/06 13:02:53;;;;;;;;;;;29.40;1.00;;;;;;5055387;28;20278;-70
2024/04/06 13:05:19;;;;;;;;;;;29.50;1.00;;;;;;5055356;28;19904;-69
2024/04/06 13:07:44;;;;;;;;;;;29.20;1.00;;;;;;5055323;28;20312;-70
2024/04/06 13:10:10;;;;;;;;;;;28.90;1.00;;;;;;5054943;28;19920;-70
2024/04/06 13:12:36;;;;;;;;;;;28.60;1.00;;;;;;5055265;28;19908;-69
2024/04/06 13:15:08;;;;;;;;;;;28.50;1.00;;;;;;5055190;28;19912;-70
2024/04/06 13:17:35;;;;;;;;;;;28.20;1.00;;;;;;5055149;28;19996;-70
2024/04/06 13:22:40;;;;;;;;;;;28.00;1.00;;;;;;5055102;28;19905;-70
2024/04/06 13:25:09;;;;;;;;;;;28.00;1.00;;;;;;5055049;28;20330;-70
2024/04/06 13:27:34;;;;;;;;;;;28.10;1.00;;;;;;5055029;28;20376;-70
2024/04/06 13:30:00;;;;;;;;;;;28.10;1.00;;;;;;5054644;28;19916;-70
2024/04/06 13:32:25;;;;;;;;;;;28.30;1.00;;;;;;5054814;28;19919;-70
2024/04/06 13:34:55;;;;;;;;;;;28.50;1.00;;;;;;5054753;28;19905;-69
2024/04/06 13:37:21;;;;;;;;;;;28.60;1.00;;;;;;5054803;28;20321;-70
2024/04/06 13:39:46;;;;;;;;;;;28.50;1.00;;;;;;5054411;28;20399;-69
2024/04/06 13:42:12;;;;;;;;;;;28.20;1.00;;;;;;5054804;28;19905;-69
2024/04/06 13:44:38;;;;;;;;;;;28.10;1.00;;;;;;5054626;28;19912;-69
2024/04/06 13:47:04;;;;;;;;;;;28.00;1.00;;;;;;5054629;28;19951;-70
2024/04/06 13:49:30;;;;;;;;;;;28.00;1.00;;;;;;5054326;28;19936;-70
2024/04/06 13:51:56;;;;;;;;;;;28.00;1.00;;;;;;5054495;28;19908;-69
2024/04/06 13:54:21;;;;;;;;;;;28.00;1.00;;;;;;5054486;28;19904;-70
2024/04/06 13:56:47;;;;;;;;;;;27.90;1.00;;;;;;5054446;28;19912;-69
2024/04/06 13:59:13;;;;;;;;;;;27.70;1.00;;;;;;5054158;28;20344;-69
2024/04/06 14:01:38;;;;;;;;;;;27.70;1.00;;;;;;5054376;28;19905;-70
2024/04/06 14:04:05;;;;;;;;;;;27.60;1.00;;;;;;5054292;28;19926;-69
2024/04/06 14:06:31;;;;;;;;;;;27.70;1.00;;;;;;5053834;28;19904;-69
2024/04/06 14:08:56;;;;;;;;;;;27.80;1.00;;;;;;5053922;28;20339;-69
2024/04/06 14:11:34;;;;;;;;;;;27.80;1.00;;;;;;5054086;28;19904;-69
2024/04/06 14:14:00;;;;;;;;;;;27.70;1.00;;;;;;5054089;28;19987;-69
2024/04/06 14:16:27;;;;;;;;;;;27.80;1.00;;;;;;5053989;28;19948;-69
2024/04/06 14:18:53;;;;;;;;;;;27.70;1.00;;;;;;5053733;28;19913;-69